createdAt,value
2023-11-25T00:02:06.532Z,7.00
2023-11-25T00:04:39.906Z,6.22
2023-11-25T00:07:12.347Z,6.12
2023-11-25T00:09:44.935Z,6.20
2023-11-25T00:12:17.872Z,5.78
2023-11-25T00:14:50.795Z,5.45
2023-11-25T00:17:24.897Z,5.47
2023-11-25T00:20:00.596Z,5.33
2023-11-25T00:22:33.436Z,5.75
2023-11-25T00:25:07.216Z,5.45
2023-11-25T00:27:39.829Z,6.40
2023-11-25T00:30:13.386Z,6.37
2023-11-25T00:32:46.179Z,5.40
2023-11-25T00:35:19.569Z,6.40
2023-11-25T00:37:51.981Z,6.70
2023-11-25T00:40:26.373Z,6.97
2023-11-25T00:42:58.944Z,6.75
2023-11-25T00:45:31.677Z,5.70
2023-11-25T00:48:04.527Z,5.85
2023-11-25T00:50:37.382Z,5.55
2023-11-25T00:53:10.070Z,6.45
2023-11-25T00:55:42.760Z,5.50
2023-11-25T00:58:15.176Z,5.67
2023-11-25T01:00:48.112Z,5.35
2023-11-25T01:03:20.818Z,5.08
2023-11-25T01:05:54.556Z,5.25
2023-11-25T01:08:30.481Z,5.30
2023-11-25T01:11:03.364Z,4.97
2023-11-25T01:13:36.118Z,5.35
2023-11-25T01:16:17.801Z,5.22
2023-11-25T01:18:50.179Z,5.03
2023-11-25T01:21:22.923Z,5.20
2023-11-25T01:23:55.447Z,5.58
2023-11-25T01:26:27.789Z,4.95
2023-11-25T01:29:00.198Z,5.28
2023-11-25T01:31:33.377Z,6.30
2023-11-25T01:34:06.151Z,5.95
2023-11-25T01:36:39.114Z,6.10
2023-11-25T01:39:11.793Z,5.50
2023-11-25T01:41:48.285Z,6.03
2023-11-25T01:44:21.001Z,6.67
2023-11-25T01:46:54.019Z,5.83
2023-11-25T01:49:27.141Z,5.90
2023-11-25T01:52:01.093Z,5.80
2023-11-25T01:54:33.968Z,5.45
2023-11-25T01:57:06.677Z,5.10
2023-11-25T01:59:39.138Z,5.62
2023-11-25T02:02:12.675Z,5.83
2023-11-25T02:04:45.528Z,5.72
2023-11-25T02:07:18.155Z,5.65
2023-11-25T02:09:50.735Z,6.03
2023-11-25T02:12:23.387Z,6.22
2023-11-25T02:14:55.749Z,5.15
2023-11-25T02:17:28.745Z,5.85
2023-11-25T02:20:03.757Z,5.87
2023-11-25T02:25:10.367Z,5.67
2023-11-25T02:27:43.291Z,5.65
2023-11-25T02:30:15.945Z,5.00
2023-11-25T02:32:48.398Z,5.53
2023-11-25T02:35:22.228Z,5.37
2023-11-25T02:37:55.167Z,5.85
2023-11-25T02:40:27.845Z,5.58
2023-11-25T02:43:00.453Z,5.92
2023-11-25T02:45:33.527Z,5.35
2023-11-25T02:48:07.387Z,5.35
2023-11-25T02:50:40.262Z,5.47
2023-11-25T02:53:13.038Z,5.10
2023-11-25T02:55:46.156Z,4.70
2023-11-25T02:58:18.653Z,5.35
2023-11-25T03:00:53.101Z,5.03
2023-11-25T03:03:25.993Z,5.25
2023-11-25T03:06:00.731Z,5.30
2023-11-25T03:08:35.329Z,4.72
2023-11-25T03:11:10.024Z,5.15
2023-11-25T03:16:17.398Z,5.37
2023-11-25T03:21:22.290Z,5.03
2023-11-25T03:23:54.680Z,5.12
2023-11-25T03:26:27.591Z,4.30
2023-11-25T03:29:00.214Z,5.25
2023-11-25T03:31:34.789Z,5.12
2023-11-25T03:34:07.249Z,5.47
2023-11-25T03:36:39.918Z,4.35
2023-11-25T03:39:14.129Z,4.40
2023-11-25T03:44:18.725Z,3.70
2023-11-25T03:46:51.338Z,3.50
2023-11-25T03:49:24.584Z,3.67
2023-11-25T03:51:57.595Z,3.87
2023-11-25T03:54:29.992Z,3.77
2023-11-25T03:57:02.458Z,3.60
2023-11-25T03:59:35.299Z,3.70
2023-11-25T04:02:08.458Z,3.60
2023-11-25T04:04:41.389Z,3.45
2023-11-25T04:07:14.413Z,3.80
2023-11-25T04:09:47.056Z,4.45
2023-11-25T04:12:19.394Z,4.20
2023-11-25T04:14:52.127Z,3.72
2023-11-25T04:17:24.784Z,4.87
2023-11-25T04:19:58.505Z,4.00
2023-11-25T04:22:31.317Z,4.78
2023-11-25T04:25:04.506Z,4.85
2023-11-25T04:27:37.286Z,5.60
2023-11-25T04:30:11.710Z,6.00
2023-11-25T04:32:45.287Z,6.00
2023-11-25T04:35:18.558Z,6.58
2023-11-25T04:37:52.155Z,5.85
2023-11-25T04:40:25.524Z,6.20
2023-11-25T04:42:57.854Z,7.17
2023-11-25T04:45:30.709Z,6.08
2023-11-25T04:48:03.428Z,6.67
2023-11-25T04:50:36.035Z,6.42
2023-11-25T04:53:11.175Z,6.35
2023-11-25T04:55:43.759Z,6.50
2023-11-25T04:58:16.882Z,6.83
2023-11-25T05:00:49.685Z,7.20
2023-11-25T05:03:24.417Z,7.20
2023-11-25T05:05:57.036Z,7.25
2023-11-25T05:08:29.748Z,7.05
2023-11-25T05:11:02.407Z,7.80
2023-11-25T05:13:35.650Z,7.62
2023-11-25T05:16:09.640Z,8.28
2023-11-25T05:18:44.377Z,8.23
2023-11-25T05:21:17.273Z,8.63
2023-11-25T05:23:50.884Z,8.20
2023-11-25T05:26:25.165Z,9.00
2023-11-25T05:28:58.220Z,8.85
2023-11-25T05:31:30.925Z,9.65
2023-11-25T05:34:08.599Z,9.60
2023-11-25T05:36:41.741Z,9.98
2023-11-25T05:39:16.451Z,10.23
2023-11-25T05:41:51.733Z,9.53
2023-11-25T05:44:25.929Z,9.78
2023-11-25T05:46:59.036Z,9.85
2023-11-25T05:49:31.567Z,9.70
2023-11-25T05:52:04.720Z,10.40
2023-11-25T05:54:37.279Z,11.18
2023-11-25T05:57:11.033Z,11.15
2023-11-25T05:59:44.581Z,10.10
2023-11-25T06:02:17.583Z,10.38
2023-11-25T06:04:50.631Z,10.60
2023-11-25T06:07:23.603Z,11.50
2023-11-25T06:09:57.045Z,10.25
2023-11-25T06:12:29.517Z,10.93
2023-11-25T06:15:02.028Z,9.88
2023-11-25T06:17:35.361Z,11.35
2023-11-25T06:20:09.734Z,12.00
2023-11-25T06:25:15.748Z,11.33
2023-11-25T06:27:48.634Z,9.98
2023-11-25T06:30:24.732Z,10.72
2023-11-25T06:32:57.351Z,11.12
2023-11-25T06:35:30.859Z,11.65
2023-11-25T06:38:04.917Z,11.33
2023-11-25T06:43:14.333Z,11.48
2023-11-25T06:48:24.691Z,11.95
2023-11-25T06:51:00.632Z,15.80
2023-11-25T06:53:33.396Z,17.42
2023-11-25T06:56:07.768Z,18.30
2023-11-25T06:58:40.564Z,18.35
2023-11-25T07:01:20.986Z,19.02
2023-11-25T07:03:54.106Z,20.08
2023-11-25T07:06:26.857Z,18.67
2023-11-25T07:09:01.605Z,16.67
2023-11-25T07:11:35.528Z,14.70
2023-11-25T07:14:09.739Z,13.00
2023-11-25T07:16:42.390Z,11.90
2023-11-25T07:19:16.010Z,11.28
2023-11-25T07:21:48.724Z,10.80
2023-11-25T07:24:21.208Z,10.82
2023-11-25T07:26:56.549Z,11.65
2023-11-25T07:29:30.905Z,10.40
2023-11-25T07:32:03.800Z,10.00
2023-11-25T07:34:37.476Z,10.00
2023-11-25T07:37:11.066Z,10.60
2023-11-25T07:39:43.804Z,10.10
2023-11-25T07:42:17.074Z,8.98
2023-11-25T07:44:49.906Z,9.60
2023-11-25T07:47:23.727Z,9.13
2023-11-25T07:49:56.330Z,9.40
2023-11-25T07:52:29.330Z,8.30
2023-11-25T07:55:02.827Z,7.72
2023-11-25T07:57:36.175Z,8.63
2023-11-25T08:00:11.523Z,8.28
2023-11-25T08:02:49.812Z,7.90
2023-11-25T08:05:25.848Z,10.25
2023-11-25T08:07:58.722Z,8.13
2023-11-25T08:10:33.061Z,8.75
2023-11-25T08:13:05.891Z,7.87
2023-11-25T08:15:38.597Z,8.65
2023-11-25T08:18:11.266Z,9.63
2023-11-25T08:20:44.203Z,9.35
2023-11-25T08:23:17.310Z,8.70
2023-11-25T08:25:50.848Z,10.18
2023-11-25T08:28:23.516Z,11.05
2023-11-25T08:30:55.878Z,10.15
2023-11-25T08:33:28.653Z,10.58
2023-11-25T08:36:01.694Z,10.08
2023-11-25T08:38:34.616Z,9.90
2023-11-25T08:41:10.101Z,10.35
2023-11-25T08:43:45.032Z,9.98
2023-11-25T08:46:19.207Z,10.65
2023-11-25T08:48:53.338Z,10.58
2023-11-25T08:51:26.326Z,10.23
2023-11-25T08:53:58.799Z,10.50
2023-11-25T08:56:37.041Z,10.05
2023-11-25T08:59:07.750Z,9.80
2023-11-25T09:01:41.342Z,10.50
2023-11-25T09:04:16.036Z,11.10
2023-11-25T09:06:50.866Z,10.05
2023-11-25T09:09:23.957Z,10.45
2023-11-25T09:11:56.381Z,9.80
2023-11-25T09:14:30.792Z,10.73
2023-11-25T09:17:03.590Z,11.22
2023-11-25T09:19:36.271Z,10.30
2023-11-25T09:22:09.508Z,11.83
2023-11-25T09:24:43.543Z,10.40
2023-11-25T09:27:16.070Z,10.95
2023-11-25T09:29:49.146Z,10.88
2023-11-25T09:32:23.259Z,9.90
2023-11-25T09:34:57.618Z,10.80
2023-11-25T09:37:30.029Z,10.32
2023-11-25T09:40:07.294Z,10.03
2023-11-25T09:42:39.989Z,10.75
2023-11-25T09:45:14.184Z,10.15
2023-11-25T09:47:46.971Z,10.25
2023-11-25T09:50:21.330Z,10.90
2023-11-25T09:52:57.351Z,11.08
2023-11-25T09:55:30.658Z,11.48
2023-11-25T09:58:11.459Z,11.45
2023-11-25T10:00:43.810Z,12.90
2023-11-25T10:03:16.646Z,11.20
2023-11-25T10:05:49.414Z,11.50
2023-11-25T10:08:25.938Z,11.65
2023-11-25T10:11:09.026Z,12.20
2023-11-25T10:13:43.351Z,12.58
2023-11-25T10:16:17.799Z,11.57
2023-11-25T10:18:53.512Z,13.05
2023-11-25T10:21:26.918Z,11.18
2023-11-25T10:24:05.057Z,11.30
2023-11-25T10:26:40.486Z,11.00
2023-11-25T10:29:15.131Z,11.05
2023-11-25T10:34:21.088Z,10.38
2023-11-25T10:39:26.284Z,10.10
2023-11-25T10:41:59.704Z,10.90
2023-11-25T10:44:32.949Z,11.37
2023-11-25T10:47:06.808Z,11.45
2023-11-25T10:49:40.516Z,11.83
2023-11-25T10:52:13.713Z,11.75
2023-11-25T10:54:46.821Z,11.88
2023-11-25T10:57:25.231Z,11.03
2023-11-25T10:59:59.766Z,10.70
2023-11-25T11:02:39.814Z,11.05
2023-11-25T11:05:12.571Z,10.20
2023-11-25T11:07:49.123Z,11.33
2023-11-25T11:10:29.273Z,11.05
2023-11-25T11:13:09.959Z,10.78
2023-11-25T11:15:42.288Z,10.32
2023-11-25T11:18:19.979Z,9.53
2023-11-25T11:20:52.989Z,9.40
2023-11-25T11:23:25.416Z,9.25
2023-11-25T11:26:29.047Z,8.03
2023-11-25T11:29:25.415Z,8.93
2023-11-25T11:32:09.550Z,8.30
2023-11-25T11:34:43.572Z,9.83
2023-11-25T11:37:16.700Z,10.13
2023-11-25T11:39:59.960Z,9.70
2023-11-25T11:42:34.733Z,11.00
2023-11-25T11:45:19.221Z,10.82
2023-11-25T11:47:57.248Z,12.80
2023-11-25T11:50:35.347Z,11.43
2023-11-25T11:53:14.373Z,12.33
2023-11-25T11:55:55.227Z,13.13
2023-11-25T11:58:29.029Z,12.73
2023-11-25T12:01:08.367Z,13.22
2023-11-25T12:03:41.479Z,14.58
2023-11-25T12:06:17.202Z,14.15
2023-11-25T12:08:51.241Z,14.43
2023-11-25T12:11:23.775Z,14.25
2023-11-25T12:13:56.171Z,13.00
2023-11-25T12:16:28.715Z,12.00
2023-11-25T12:19:01.824Z,11.48
2023-11-25T12:21:36.338Z,11.35
2023-11-25T12:24:16.038Z,11.65
2023-11-25T12:26:51.469Z,12.05
2023-11-25T12:29:26.120Z,11.33
2023-11-25T12:31:58.754Z,12.30
2023-11-25T12:34:31.544Z,11.97
2023-11-25T12:37:04.615Z,12.90
2023-11-25T12:39:37.370Z,12.43
2023-11-25T12:42:12.235Z,13.00
2023-11-25T12:44:52.747Z,12.80
2023-11-25T12:47:25.726Z,13.20
2023-11-25T12:50:07.437Z,12.33
2023-11-25T12:52:40.368Z,13.05
2023-11-25T12:55:13.884Z,12.93
2023-11-25T12:57:46.816Z,13.08
2023-11-25T13:00:20.732Z,13.98
2023-11-25T13:02:54.455Z,13.30
2023-11-25T13:05:27.566Z,13.10
2023-11-25T13:08:01.541Z,12.43
2023-11-25T13:10:34.481Z,13.65
2023-11-25T13:13:07.148Z,13.98
2023-11-25T13:15:41.230Z,14.10
2023-11-25T13:18:13.606Z,14.58
2023-11-25T13:20:46.795Z,15.32
2023-11-25T13:23:21.319Z,15.40
2023-11-25T13:28:27.406Z,14.60
2023-11-25T13:30:59.942Z,15.70
2023-11-25T13:33:32.684Z,16.23
2023-11-25T13:36:06.769Z,16.00
2023-11-25T13:38:40.365Z,15.65
2023-11-25T13:41:13.544Z,16.73
2023-11-25T13:43:47.712Z,15.98
2023-11-25T13:46:21.136Z,14.87
2023-11-25T13:48:53.717Z,14.90
2023-11-25T13:51:27.032Z,16.10
2023-11-25T13:53:59.488Z,15.70
2023-11-25T13:56:32.099Z,15.63
2023-11-25T13:59:04.566Z,17.57
2023-11-25T14:01:38.412Z,17.10
2023-11-25T14:04:10.997Z,17.15
2023-11-25T14:06:44.689Z,17.85
2023-11-25T14:09:19.257Z,17.97
2023-11-25T14:11:52.518Z,16.75
2023-11-25T14:14:24.930Z,17.65
2023-11-25T14:17:00.375Z,17.07
2023-11-25T14:19:33.450Z,18.07
2023-11-25T14:22:07.006Z,17.67
2023-11-25T14:24:40.024Z,17.25
2023-11-25T14:27:12.663Z,17.42
2023-11-25T14:29:45.894Z,17.20
2023-11-25T14:32:18.691Z,18.42
2023-11-25T14:34:51.672Z,18.25
2023-11-25T14:37:24.147Z,18.17
2023-11-25T14:40:01.282Z,17.85
2023-11-25T14:42:35.157Z,18.27
2023-11-25T14:45:09.447Z,18.87
2023-11-25T14:47:43.263Z,20.60
2023-11-25T14:50:16.818Z,19.10
2023-11-25T14:52:50.315Z,18.77
2023-11-25T14:55:23.430Z,18.75
2023-11-25T14:57:57.694Z,22.70
2023-11-25T15:00:31.472Z,20.80
2023-11-25T15:03:05.524Z,18.95
2023-11-25T15:05:40.197Z,20.82
2023-11-25T15:08:13.567Z,19.27
2023-11-25T15:10:48.152Z,19.20
2023-11-25T15:13:22.464Z,19.60
2023-11-25T15:15:55.129Z,18.87
2023-11-25T15:18:29.669Z,18.05
2023-11-25T15:21:03.694Z,18.70
2023-11-25T15:23:41.389Z,18.85
2023-11-25T15:26:14.353Z,17.07
2023-11-25T15:28:50.139Z,17.98
2023-11-25T15:31:22.110Z,17.20
2023-11-25T15:33:54.661Z,18.62
2023-11-25T15:36:28.996Z,18.35
2023-11-25T15:39:03.829Z,18.32
2023-11-25T15:41:36.979Z,18.48
2023-11-25T15:44:09.697Z,18.12
2023-11-25T15:46:42.443Z,18.80
2023-11-25T15:49:15.018Z,19.27
2023-11-25T15:51:49.236Z,20.48
2023-11-25T15:54:22.588Z,21.02
2023-11-25T15:56:56.347Z,19.48
2023-11-25T15:59:31.050Z,20.12
2023-11-25T16:02:04.048Z,20.10
2023-11-25T16:04:38.654Z,21.60
2023-11-25T16:07:13.336Z,21.68
2023-11-25T16:09:46.771Z,22.45
2023-11-25T16:12:19.521Z,21.57
2023-11-25T16:14:52.393Z,21.55
2023-11-25T16:17:26.010Z,20.50
2023-11-25T16:19:58.929Z,23.10
2023-11-25T16:22:31.876Z,22.35
2023-11-25T16:25:06.241Z,24.00
2023-11-25T16:27:39.066Z,22.85
2023-11-25T16:30:13.658Z,23.98
2023-11-25T16:32:47.008Z,22.00
2023-11-25T16:35:20.361Z,23.98
2023-11-25T16:37:54.085Z,23.87
2023-11-25T16:40:28.255Z,24.32
2023-11-25T16:43:02.792Z,23.35
2023-11-25T16:45:38.433Z,25.37
2023-11-25T16:48:11.282Z,24.25
2023-11-25T16:50:44.117Z,25.85
2023-11-25T16:53:18.134Z,26.80
2023-11-25T16:55:51.545Z,25.43
2023-11-25T16:58:24.930Z,23.32
2023-11-25T17:00:58.069Z,24.07
2023-11-25T17:03:31.074Z,25.05
2023-11-25T17:06:06.832Z,27.13
2023-11-25T17:08:40.402Z,27.37
2023-11-25T17:11:13.326Z,27.52
2023-11-25T17:13:46.291Z,29.18
2023-11-25T17:16:20.577Z,28.15
2023-11-25T17:18:54.476Z,27.27
2023-11-25T17:21:27.120Z,26.25
2023-11-25T17:24:00.701Z,28.47
2023-11-25T17:26:34.091Z,28.25
2023-11-25T17:29:06.806Z,28.77
2023-11-25T17:31:39.900Z,27.65
2023-11-25T17:34:12.772Z,29.55
2023-11-25T17:39:30.076Z,27.87
2023-11-25T17:42:04.657Z,27.70
2023-11-25T17:44:37.862Z,28.65
2023-11-25T17:47:10.571Z,28.65
2023-11-25T17:49:43.092Z,29.10
2023-11-25T17:54:51.230Z,30.30
2023-11-25T17:57:23.926Z,30.08
2023-11-25T17:59:56.442Z,28.30
2023-11-25T18:02:29.160Z,29.02
2023-11-25T18:05:04.722Z,27.87
2023-11-25T18:07:45.198Z,28.47
2023-11-25T18:10:17.996Z,29.70
2023-11-25T18:12:50.766Z,30.08
2023-11-25T18:15:23.740Z,29.18
2023-11-25T18:17:56.829Z,30.90
2023-11-25T18:20:29.925Z,32.23
2023-11-25T18:23:03.033Z,36.10
2023-11-25T18:25:35.822Z,31.12
2023-11-25T18:28:08.347Z,32.42
2023-11-25T18:30:43.756Z,31.30
2023-11-25T18:33:17.365Z,31.33
2023-11-25T18:35:51.122Z,31.12
2023-11-25T18:38:24.629Z,30.05
2023-11-25T18:40:57.582Z,31.42
2023-11-25T18:43:33.751Z,30.62
2023-11-25T18:46:06.977Z,30.35
2023-11-25T18:48:41.399Z,31.37
2023-11-25T18:51:13.789Z,30.95
2023-11-25T18:53:46.861Z,31.77
2023-11-25T18:56:19.513Z,31.23
2023-11-25T18:58:52.273Z,32.53
2023-11-25T19:01:36.004Z,31.05
2023-11-25T19:04:09.367Z,31.55
2023-11-25T19:06:41.924Z,30.35
2023-11-25T19:09:16.762Z,27.93
2023-11-25T19:11:53.710Z,30.17
2023-11-25T19:14:26.659Z,30.52
2023-11-25T19:17:00.154Z,27.30
2023-11-25T19:19:33.186Z,30.72
2023-11-25T19:22:10.776Z,30.10
2023-11-25T19:24:41.913Z,31.48
2023-11-25T19:27:14.226Z,31.50
2023-11-25T19:29:47.869Z,35.13
2023-11-25T19:32:23.833Z,33.75
2023-11-25T19:35:00.855Z,35.70
2023-11-25T19:37:34.444Z,38.03
2023-11-25T19:40:10.818Z,39.60
2023-11-25T19:42:44.009Z,39.27
2023-11-25T19:45:18.604Z,38.02
2023-11-25T19:47:51.174Z,36.83
2023-11-25T19:50:24.524Z,36.75
2023-11-25T19:52:57.696Z,37.55
2023-11-25T19:55:31.647Z,35.45
2023-11-25T19:58:05.211Z,36.38
2023-11-25T20:00:48.946Z,36.03
2023-11-25T20:03:12.692Z,37.63
2023-11-25T20:05:46.854Z,37.10
2023-11-25T20:08:20.882Z,35.83
2023-11-25T20:10:53.951Z,41.80
2023-11-25T20:13:26.634Z,42.38
2023-11-25T20:15:59.720Z,39.98
2023-11-25T20:18:32.750Z,41.95
2023-11-25T20:21:05.327Z,37.85
2023-11-25T20:23:38.093Z,39.63
2023-11-25T20:26:11.414Z,39.08
2023-11-25T20:28:44.558Z,40.40
2023-11-25T20:31:17.377Z,38.55
2023-11-25T20:33:50.359Z,40.98
2023-11-25T20:36:24.162Z,43.58
2023-11-25T20:38:57.750Z,48.02
2023-11-25T20:41:30.723Z,44.00
2023-11-25T20:44:04.006Z,46.40
2023-11-25T20:46:36.702Z,46.15
2023-11-25T20:49:09.560Z,46.92
2023-11-25T20:51:44.278Z,47.05
2023-11-25T20:56:50.869Z,48.95
2023-11-25T20:59:23.695Z,48.13
2023-11-25T21:01:57.604Z,47.60
2023-11-25T21:04:31.179Z,46.73
2023-11-25T21:07:04.369Z,50.12
2023-11-25T21:09:36.903Z,48.48
2023-11-25T21:12:11.778Z,47.67
2023-11-25T21:14:44.457Z,45.55
2023-11-25T21:17:17.282Z,47.78
2023-11-25T21:19:49.893Z,48.92
2023-11-25T21:22:22.535Z,45.67
2023-11-25T21:24:56.294Z,51.65
2023-11-25T21:27:30.421Z,51.42
2023-11-25T21:30:05.577Z,55.00
2023-11-25T21:32:41.655Z,60.08
2023-11-25T21:35:14.751Z,63.10
2023-11-25T21:37:48.030Z,62.48
2023-11-25T21:40:23.777Z,63.20
2023-11-25T21:42:55.636Z,62.70
2023-11-25T21:45:28.499Z,60.88
2023-11-25T21:48:01.603Z,58.70
2023-11-25T21:50:34.475Z,63.30
2023-11-25T21:53:07.537Z,63.50
2023-11-25T21:55:41.035Z,63.45
2023-11-25T21:58:14.223Z,63.45
2023-11-25T22:00:46.744Z,62.85
2023-11-25T22:03:19.377Z,60.33
2023-11-25T22:05:52.026Z,58.08
2023-11-25T22:08:24.534Z,54.80
2023-11-25T22:11:00.030Z,57.98
2023-11-25T22:13:32.955Z,54.90
2023-11-25T22:16:05.881Z,59.48
2023-11-25T22:18:38.837Z,56.77
2023-11-25T22:21:11.289Z,54.55
2023-11-25T22:23:45.532Z,53.15
2023-11-25T22:26:22.989Z,51.10
2023-11-25T22:28:55.580Z,47.95
2023-11-25T22:31:28.350Z,45.52
2023-11-25T22:34:00.989Z,46.05
2023-11-25T22:36:33.919Z,52.43
2023-11-25T22:39:08.173Z,39.58
2023-11-25T22:41:41.214Z,40.88
2023-11-25T22:44:13.993Z,41.18
2023-11-25T22:46:46.542Z,39.78
2023-11-25T22:49:18.948Z,39.60
2023-11-25T22:51:51.486Z,38.75
2023-11-25T22:54:24.621Z,39.42
2023-11-25T22:56:59.048Z,41.68
2023-11-25T22:59:33.016Z,40.60
2023-11-25T23:02:07.768Z,45.35
2023-11-25T23:04:40.735Z,48.28
2023-11-25T23:07:13.258Z,42.73
2023-11-25T23:09:45.940Z,42.90
2023-11-25T23:12:19.797Z,43.87
2023-11-25T23:14:52.779Z,41.83
2023-11-25T23:17:26.886Z,39.80
2023-11-25T23:19:59.505Z,37.33
2023-11-25T23:22:32.066Z,38.95
2023-11-25T23:25:04.715Z,41.10
2023-11-25T23:27:38.186Z,40.03
2023-11-25T23:30:11.830Z,41.05
2023-11-25T23:32:44.642Z,44.58
2023-11-25T23:35:17.310Z,46.75
2023-11-25T23:37:49.975Z,44.30
2023-11-25T23:40:22.628Z,44.13
2023-11-25T23:42:55.320Z,41.80
2023-11-25T23:45:27.909Z,42.17
2023-11-25T23:48:00.503Z,43.10
2023-11-25T23:50:33.023Z,49.33
2023-11-25T23:53:05.631Z,43.33
2023-11-25T23:55:38.754Z,42.08
2023-11-25T23:58:11.616Z,42.27
